sensor_id;sensor_type;location;lat;lon;timestamp;pressure;altitude;pressure_sealevel;temperature;humidity
57000;BME280;42891;50.006;21.964;2023-02-14T00:03:41;100490.34;;;3.04;91.41
57000;BME280;42891;50.006;21.964;2023-02-14T00:07:41;100475.50;;;3.06;90.67
57000;BME280;42891;50.006;21.964;2023-02-14T00:11:43;100483.50;;;3.27;90.42
57000;BME280;42891;50.006;21.964;2023-02-14T00:15:43;100465.53;;;3.18;90.24
57000;BME280;42891;50.006;21.964;2023-02-14T00:19:44;100478.50;;;3.21;90.24
57000;BME280;42891;50.006;21.964;2023-02-14T00:23:44;100491.69;;;3.16;89.87
57000;BME280;42891;50.006;21.964;2023-02-14T00:27:44;100479.91;;;3.04;90.42
57000;BME280;42891;50.006;21.964;2023-02-14T00:31:45;100487.75;;;3.30;90.06
57000;BME280;42891;50.006;21.964;2023-02-14T00:35:45;100479.97;;;3.03;90.45
57000;BME280;42891;50.006;21.964;2023-02-14T00:39:45;100492.81;;;3.09;90.54
57000;BME280;42891;50.006;21.964;2023-02-14T00:43:50;100486.81;;;3.07;90.11
57000;BME280;42891;50.006;21.964;2023-02-14T00:47:50;100457.78;;;2.89;90.71
57000;BME280;42891;50.006;21.964;2023-02-14T00:51:51;100460.91;;;3.01;90.53
57000;BME280;42891;50.006;21.964;2023-02-14T00:55:51;100471.69;;;3.17;90.09
57000;BME280;42891;50.006;21.964;2023-02-14T00:59:51;100460.78;;;3.04;90.33
57000;BME280;42891;50.006;21.964;2023-02-14T01:03:52;100449.56;;;3.02;89.58
57000;BME280;42891;50.006;21.964;2023-02-14T01:07:52;100485.75;;;3.13;89.68
57000;BME280;42891;50.006;21.964;2023-02-14T01:11:53;100467.59;;;3.08;89.21
57000;BME280;42891;50.006;21.964;2023-02-14T01:15:53;100473.16;;;2.99;89.35
57000;BME280;42891;50.006;21.964;2023-02-14T01:19:53;100466.59;;;3.12;89.21
57000;BME280;42891;50.006;21.964;2023-02-14T01:23:56;100458.41;;;2.98;89.63
57000;BME280;42891;50.006;21.964;2023-02-14T01:27:57;100459.03;;;3.04;89.11
57000;BME280;42891;50.006;21.964;2023-02-14T01:31:57;100455.03;;;2.94;89.42
57000;BME280;42891;50.006;21.964;2023-02-14T01:35:57;100457.59;;;2.96;89.59
57000;BME280;42891;50.006;21.964;2023-02-14T01:39:58;100450.31;;;3.05;89.64
57000;BME280;42891;50.006;21.964;2023-02-14T01:48:14;100429.22;;;2.86;89.89
57000;BME280;42891;50.006;21.964;2023-02-14T01:52:32;100456.09;;;2.88;90.05
57000;BME280;42891;50.006;21.964;2023-02-14T01:56:38;100440.59;;;2.84;90.15
57000;BME280;42891;50.006;21.964;2023-02-14T02:00:40;100467.19;;;2.95;90.27
57000;BME280;42891;50.006;21.964;2023-02-14T02:04:56;100437.75;;;2.92;89.94
57000;BME280;42891;50.006;21.964;2023-02-14T02:09:06;100433.66;;;2.83;90.00
57000;BME280;42891;50.006;21.964;2023-02-14T02:13:13;100442.09;;;2.91;89.94
57000;BME280;42891;50.006;21.964;2023-02-14T02:21:52;100435.56;;;3.04;89.02
57000;BME280;42891;50.006;21.964;2023-02-14T02:30:35;100463.56;;;3.24;88.00
57000;BME280;42891;50.006;21.964;2023-02-14T02:35:08;100459.94;;;3.29;87.87
57000;BME280;42891;50.006;21.964;2023-02-14T02:43:32;100455.59;;;3.29;87.08
57000;BME280;42891;50.006;21.964;2023-02-14T02:47:49;100461.66;;;3.30;86.58
57000;BME280;42891;50.006;21.964;2023-02-14T02:51:54;100448.97;;;3.19;87.04
57000;BME280;42891;50.006;21.964;2023-02-14T02:56:21;100466.63;;;3.37;86.89
57000;BME280;42891;50.006;21.964;2023-02-14T03:00:43;100470.38;;;3.29;86.96
57000;BME280;42891;50.006;21.964;2023-02-14T03:04:50;100470.28;;;3.32;87.28
57000;BME280;42891;50.006;21.964;2023-02-14T03:08:54;100473.94;;;3.28;86.99
57000;BME280;42891;50.006;21.964;2023-02-14T03:17:21;100491.50;;;3.22;87.49
57000;BME280;42891;50.006;21.964;2023-02-14T03:25:56;100501.53;;;3.35;87.09
57000;BME280;42891;50.006;21.964;2023-02-14T03:38:31;100477.84;;;3.39;86.64
57000;BME280;42891;50.006;21.964;2023-02-14T03:42:37;100500.47;;;3.40;87.00
57000;BME280;42891;50.006;21.964;2023-02-14T03:47:16;100501.03;;;3.49;86.65
57000;BME280;42891;50.006;21.964;2023-02-14T03:51:19;100488.19;;;3.42;86.64
57000;BME280;42891;50.006;21.964;2023-02-14T03:55:26;100458.16;;;3.31;86.75
57000;BME280;42891;50.006;21.964;2023-02-14T03:59:29;100500.97;;;3.50;86.83
57000;BME280;42891;50.006;21.964;2023-02-14T04:03:31;100484.31;;;3.29;87.31
57000;BME280;42891;50.006;21.964;2023-02-14T04:07:43;100467.09;;;3.23;87.09
57000;BME280;42891;50.006;21.964;2023-02-14T04:11:45;100491.06;;;3.35;86.93
57000;BME280;42891;50.006;21.964;2023-02-14T04:15:46;100494.34;;;3.40;87.10
57000;BME280;42891;50.006;21.964;2023-02-14T04:19:46;100501.41;;;3.38;87.24
57000;BME280;42891;50.006;21.964;2023-02-14T04:23:46;100497.91;;;3.39;86.96
57000;BME280;42891;50.006;21.964;2023-02-14T04:27:47;100477.63;;;3.20;86.70
57000;BME280;42891;50.006;21.964;2023-02-14T04:31:47;100503.19;;;3.37;86.90
57000;BME280;42891;50.006;21.964;2023-02-14T04:35:48;100483.91;;;3.40;86.72
57000;BME280;42891;50.006;21.964;2023-02-14T04:39:48;100501.03;;;3.49;86.99
57000;BME280;42891;50.006;21.964;2023-02-14T04:43:48;100489.13;;;3.40;86.91
57000;BME280;42891;50.006;21.964;2023-02-14T04:47:48;100481.16;;;3.45;86.59
57000;BME280;42891;50.006;21.964;2023-02-14T04:51:49;100476.63;;;3.24;87.09
57000;BME280;42891;50.006;21.964;2023-02-14T04:55:49;100483.97;;;3.38;87.23
57000;BME280;42891;50.006;21.964;2023-02-14T04:59:50;100483.38;;;3.30;87.63
57000;BME280;42891;50.006;21.964;2023-02-14T05:03:50;100485.69;;;3.39;87.72
57000;BME280;42891;50.006;21.964;2023-02-14T05:07:50;100479.94;;;3.30;87.17
57000;BME280;42891;50.006;21.964;2023-02-14T05:11:51;100494.09;;;3.22;87.67
57000;BME280;42891;50.006;21.964;2023-02-14T05:15:51;100471.34;;;3.26;87.48
57000;BME280;42891;50.006;21.964;2023-02-14T05:19:51;100467.59;;;3.35;87.32
57000;BME280;42891;50.006;21.964;2023-02-14T05:23:51;100497.09;;;3.37;87.41
57000;BME280;42891;50.006;21.964;2023-02-14T05:27:52;100486.53;;;3.15;88.29
57000;BME280;42891;50.006;21.964;2023-02-14T05:31:52;100489.47;;;3.31;87.71
57000;BME280;42891;50.006;21.964;2023-02-14T05:35:53;100499.56;;;3.41;87.78
57000;BME280;42891;50.006;21.964;2023-02-14T05:39:53;100491.28;;;3.29;88.17
57000;BME280;42891;50.006;21.964;2023-02-14T05:43:53;100505.88;;;3.34;87.90
57000;BME280;42891;50.006;21.964;2023-02-14T05:47:54;100515.06;;;3.46;87.75
57000;BME280;42891;50.006;21.964;2023-02-14T05:51:54;100511.69;;;3.42;87.75
57000;BME280;42891;50.006;21.964;2023-02-14T05:55:54;100524.19;;;3.58;87.45
57000;BME280;42891;50.006;21.964;2023-02-14T05:59:54;100508.94;;;3.47;87.44
57000;BME280;42891;50.006;21.964;2023-02-14T06:03:55;100531.09;;;3.61;86.91
57000;BME280;42891;50.006;21.964;2023-02-14T06:07:55;100539.84;;;3.60;86.96
57000;BME280;42891;50.006;21.964;2023-02-14T06:11:55;100519.56;;;3.41;87.08
57000;BME280;42891;50.006;21.964;2023-02-14T06:15:56;100528.53;;;3.59;87.41
57000;BME280;42891;50.006;21.964;2023-02-14T06:19:56;100527.56;;;3.62;86.85
57000;BME280;42891;50.006;21.964;2023-02-14T06:23:56;100533.81;;;3.57;87.10
57000;BME280;42891;50.006;21.964;2023-02-14T06:27:57;100549.31;;;3.62;87.28
57000;BME280;42891;50.006;21.964;2023-02-14T06:31:57;100543.66;;;3.74;87.37
57000;BME280;42891;50.006;21.964;2023-02-14T06:36:04;100541.59;;;3.59;87.25
57000;BME280;42891;50.006;21.964;2023-02-14T06:40:05;100553.75;;;3.60;87.15
57000;BME280;42891;50.006;21.964;2023-02-14T06:44:06;100561.59;;;3.60;87.58
57000;BME280;42891;50.006;21.964;2023-02-14T06:48:06;100542.16;;;3.67;87.19
57000;BME280;42891;50.006;21.964;2023-02-14T06:52:06;100541.34;;;3.40;87.39
57000;BME280;42891;50.006;21.964;2023-02-14T06:56:08;100548.19;;;3.44;87.63
57000;BME280;42891;50.006;21.964;2023-02-14T07:00:08;100542.38;;;3.36;88.55
57000;BME280;42891;50.006;21.964;2023-02-14T07:04:09;100544.69;;;3.45;88.18
57000;BME280;42891;50.006;21.964;2023-02-14T07:08:09;100551.56;;;3.48;88.61
57000;BME280;42891;50.006;21.964;2023-02-14T07:12:09;100549.31;;;3.62;87.91
57000;BME280;42891;50.006;21.964;2023-02-14T07:16:10;100554.41;;;3.41;88.53
57000;BME280;42891;50.006;21.964;2023-02-14T07:20:11;100534.75;;;3.55;88.22
57000;BME280;42891;50.006;21.964;2023-02-14T07:24:12;100545.06;;;3.60;88.18
57000;BME280;42891;50.006;21.964;2023-02-14T07:28:12;100544.97;;;3.63;88.02
57000;BME280;42891;50.006;21.964;2023-02-14T07:32:12;100539.84;;;3.60;88.69
57000;BME280;42891;50.006;21.964;2023-02-14T07:36:12;100535.34;;;3.63;88.25
57000;BME280;42891;50.006;21.964;2023-02-14T07:40:13;100542.81;;;3.49;88.71
57000;BME280;42891;50.006;21.964;2023-02-14T07:44:13;100555.22;;;3.67;88.06
57000;BME280;42891;50.006;21.964;2023-02-14T07:48:13;100543.50;;;3.54;88.36
57000;BME280;42891;50.006;21.964;2023-02-14T07:52:14;100552.22;;;3.54;88.65
57000;BME280;42891;50.006;21.964;2023-02-14T07:56:14;100564.78;;;3.68;88.57
57000;BME280;42891;50.006;21.964;2023-02-14T08:00:14;100566.75;;;3.62;88.79
57000;BME280;42891;50.006;21.964;2023-02-14T08:04:15;100570.22;;;3.62;89.18
57000;BME280;42891;50.006;21.964;2023-02-14T08:08:15;100575.06;;;3.73;88.97
57000;BME280;42891;50.006;21.964;2023-02-14T08:12:15;100553.22;;;3.75;88.46
57000;BME280;42891;50.006;21.964;2023-02-14T08:16:34;100563.41;;;3.83;88.13
57000;BME280;42891;50.006;21.964;2023-02-14T08:20:34;100537.44;;;3.53;89.05
57000;BME280;42891;50.006;21.964;2023-02-14T08:24:35;100561.28;;;3.69;88.98
57000;BME280;42891;50.006;21.964;2023-02-14T08:28:35;100566.75;;;3.87;88.40
57000;BME280;42891;50.006;21.964;2023-02-14T08:32:36;100549.69;;;3.77;87.89
57000;BME280;42891;50.006;21.964;2023-02-14T08:36:36;100580.50;;;3.92;88.51
57000;BME280;42891;50.006;21.964;2023-02-14T08:40:36;100585.28;;;4.04;87.91
57000;BME280;42891;50.006;21.964;2023-02-14T08:44:37;100585.78;;;3.90;87.87
57000;BME280;42891;50.006;21.964;2023-02-14T08:48:38;100582.81;;;4.01;87.51
57000;BME280;42891;50.006;21.964;2023-02-14T08:52:39;100578.19;;;4.08;87.79
57000;BME280;42891;50.006;21.964;2023-02-14T08:56:40;100571.41;;;4.02;87.71
57000;BME280;42891;50.006;21.964;2023-02-14T09:00:40;100595.31;;;4.17;87.42
57000;BME280;42891;50.006;21.964;2023-02-14T09:04:41;100588.03;;;4.25;86.99
57000;BME280;42891;50.006;21.964;2023-02-14T09:08:42;100585.19;;;4.07;87.11
57000;BME280;42891;50.006;21.964;2023-02-14T09:12:43;100612.34;;;4.27;87.14
57000;BME280;42891;50.006;21.964;2023-02-14T09:16:44;100604.22;;;4.11;86.51
57000;BME280;42891;50.006;21.964;2023-02-14T09:20:44;100601.56;;;4.13;87.40
57000;BME280;42891;50.006;21.964;2023-02-14T09:24:44;100607.56;;;4.15;87.63
57000;BME280;42891;50.006;21.964;2023-02-14T09:28:45;100604.19;;;4.13;87.32
57000;BME280;42891;50.006;21.964;2023-02-14T09:32:45;100611.78;;;4.19;86.91
57000;BME280;42891;50.006;21.964;2023-02-14T09:36:45;100582.31;;;4.14;86.71
57000;BME280;42891;50.006;21.964;2023-02-14T09:40:46;100616.31;;;4.39;86.80
57000;BME280;42891;50.006;21.964;2023-02-14T09:44:51;100616.50;;;4.33;86.41
57000;BME280;42891;50.006;21.964;2023-02-14T09:48:55;100614.97;;;4.27;86.53
57000;BME280;42891;50.006;21.964;2023-02-14T09:53:02;100614.19;;;4.25;86.20
57000;BME280;42891;50.006;21.964;2023-02-14T10:01:41;100606.50;;;4.44;85.94
57000;BME280;42891;50.006;21.964;2023-02-14T10:06:06;100614.69;;;4.35;85.88
57000;BME280;42891;50.006;21.964;2023-02-14T10:10:19;100605.31;;;4.53;86.25
57000;BME280;42891;50.006;21.964;2023-02-14T10:14:27;100616.25;;;4.40;85.81
57000;BME280;42891;50.006;21.964;2023-02-14T10:18:56;100607.31;;;4.46;85.83
57000;BME280;42891;50.006;21.964;2023-02-14T10:23:04;100597.41;;;4.54;85.77
57000;BME280;42891;50.006;21.964;2023-02-14T10:27:35;100608.56;;;4.59;85.68
57000;BME280;42891;50.006;21.964;2023-02-14T10:35:51;100587.44;;;4.64;84.88
57000;BME280;42891;50.006;21.964;2023-02-14T10:44:58;100581.09;;;4.48;85.59
57000;BME280;42891;50.006;21.964;2023-02-14T10:49:24;100580.84;;;4.54;85.51
57000;BME280;42891;50.006;21.964;2023-02-14T10:57:43;100577.09;;;4.61;85.11
57000;BME280;42891;50.006;21.964;2023-02-14T11:01:44;100553.41;;;4.42;84.92
57000;BME280;42891;50.006;21.964;2023-02-14T11:05:47;100561.94;;;4.47;84.88
57000;BME280;42891;50.006;21.964;2023-02-14T11:09:47;100565.28;;;4.73;84.58
57000;BME280;42891;50.006;21.964;2023-02-14T11:13:48;100557.38;;;4.74;84.53
57000;BME280;42891;50.006;21.964;2023-02-14T11:17:49;100559.94;;;4.76;83.88
57000;BME280;42891;50.006;21.964;2023-02-14T11:21:50;100554.53;;;4.81;84.26
57000;BME280;42891;50.006;21.964;2023-02-14T11:25:53;100536.69;;;4.68;83.77
57000;BME280;42891;50.006;21.964;2023-02-14T11:29:54;100552.63;;;4.84;83.32
57000;BME280;42891;50.006;21.964;2023-02-14T11:33:55;100524.59;;;4.88;82.79
57000;BME280;42891;50.006;21.964;2023-02-14T11:37:57;100530.50;;;4.93;82.97
57000;BME280;42891;50.006;21.964;2023-02-14T11:42:00;100543.59;;;5.13;83.14
57000;BME280;42891;50.006;21.964;2023-02-14T11:50:22;100514.47;;;5.01;82.20
57000;BME280;42891;50.006;21.964;2023-02-14T11:54:33;100541.50;;;5.01;82.67
57000;BME280;42891;50.006;21.964;2023-02-14T11:58:38;100521.81;;;5.13;83.14
57000;BME280;42891;50.006;21.964;2023-02-14T12:02:42;100522.28;;;5.23;82.75
57000;BME280;42891;50.006;21.964;2023-02-14T12:06:44;100523.19;;;5.22;82.55
57000;BME280;42891;50.006;21.964;2023-02-14T12:11:00;100524.75;;;5.26;81.52
57000;BME280;42891;50.006;21.964;2023-02-14T12:19:33;100497.28;;;5.36;81.18
57000;BME280;42891;50.006;21.964;2023-02-14T12:23:42;100509.41;;;5.39;80.71
57000;BME280;42891;50.006;21.964;2023-02-14T12:27:48;100502.97;;;5.46;80.39
57000;BME280;42891;50.006;21.964;2023-02-14T12:31:50;100498.44;;;5.50;80.27
57000;BME280;42891;50.006;21.964;2023-02-14T12:44:23;100491.44;;;5.50;80.69
57000;BME280;42891;50.006;21.964;2023-02-14T12:52:45;100513.19;;;7.05;75.55
57000;BME280;42891;50.006;21.964;2023-02-14T12:56:57;100503.06;;;6.97;74.46
57000;BME280;42891;50.006;21.964;2023-02-14T13:06:26;100500.72;;;6.91;73.77
57000;BME280;42891;50.006;21.964;2023-02-14T13:11:00;100506.16;;;6.88;74.61
57000;BME280;42891;50.006;21.964;2023-02-14T13:23:41;100514.25;;;7.00;73.69
57000;BME280;42891;50.006;21.964;2023-02-14T13:27:42;100516.13;;;6.98;73.40
57000;BME280;42891;50.006;21.964;2023-02-14T13:31:44;100512.38;;;6.85;74.41
57000;BME280;42891;50.006;21.964;2023-02-14T13:35:44;100512.00;;;6.75;75.08
57000;BME280;42891;50.006;21.964;2023-02-14T13:40:02;100503.56;;;6.69;74.85
57000;BME280;42891;50.006;21.964;2023-02-14T13:44:03;100509.25;;;6.59;75.46
57000;BME280;42891;50.006;21.964;2023-02-14T13:52:08;100519.06;;;6.37;76.13
57000;BME280;42891;50.006;21.964;2023-02-14T14:16:33;100524.72;;;6.08;77.94
57000;BME280;42891;50.006;21.964;2023-02-14T14:20:39;100523.84;;;6.08;77.90
57000;BME280;42891;50.006;21.964;2023-02-14T14:24:51;100518.19;;;5.77;78.60
57000;BME280;42891;50.006;21.964;2023-02-14T14:28:52;100517.09;;;5.83;78.47
57000;BME280;42891;50.006;21.964;2023-02-14T14:32:53;100525.66;;;5.87;78.95
57000;BME280;42891;50.006;21.964;2023-02-14T14:37:06;100516.16;;;5.63;79.09
57000;BME280;42891;50.006;21.964;2023-02-14T14:41:06;100510.22;;;5.60;79.40
57000;BME280;42891;50.006;21.964;2023-02-14T14:45:19;100522.59;;;5.56;79.79
57000;BME280;42891;50.006;21.964;2023-02-14T14:49:20;100533.28;;;5.52;80.36
57000;BME280;42891;50.006;21.964;2023-02-14T14:53:27;100520.56;;;5.42;80.63
57000;BME280;42891;50.006;21.964;2023-02-14T14:57:27;100512.03;;;5.39;80.35
57000;BME280;42891;50.006;21.964;2023-02-14T15:01:38;100519.22;;;5.54;79.90
57000;BME280;42891;50.006;21.964;2023-02-14T15:05:48;100523.41;;;5.58;79.86
57000;BME280;42891;50.006;21.964;2023-02-14T15:09:49;100513.00;;;5.57;79.92
57000;BME280;42891;50.006;21.964;2023-02-14T15:13:50;100524.00;;;5.65;79.33
57000;BME280;42891;50.006;21.964;2023-02-14T15:17:53;100520.56;;;5.63;79.44
57000;BME280;42891;50.006;21.964;2023-02-14T15:21:54;100527.44;;;5.66;80.22
57000;BME280;42891;50.006;21.964;2023-02-14T15:25:54;100529.56;;;5.57;79.77
57000;BME280;42891;50.006;21.964;2023-02-14T15:30:00;100534.53;;;5.43;80.89
57000;BME280;42891;50.006;21.964;2023-02-14T15:34:01;100535.69;;;5.56;80.52
57000;BME280;42891;50.006;21.964;2023-02-14T15:38:05;100532.63;;;5.46;80.57
57000;BME280;42891;50.006;21.964;2023-02-14T15:42:18;100512.41;;;5.29;81.33
57000;BME280;42891;50.006;21.964;2023-02-14T15:50:32;100543.22;;;5.23;81.57
57000;BME280;42891;50.006;21.964;2023-02-14T15:54:38;100521.34;;;5.03;82.01
57000;BME280;42891;50.006;21.964;2023-02-14T15:58:42;100530.28;;;5.20;81.46
57000;BME280;42891;50.006;21.964;2023-02-14T16:02:44;100530.50;;;5.13;81.77
57000;BME280;42891;50.006;21.964;2023-02-14T16:11:35;100558.78;;;5.27;81.99
57000;BME280;42891;50.006;21.964;2023-02-14T16:15:38;100559.28;;;5.15;81.98
57000;BME280;42891;50.006;21.964;2023-02-14T16:19:43;100562.31;;;5.04;82.52
57000;BME280;42891;50.006;21.964;2023-02-14T16:28:11;100558.66;;;5.08;82.49
57000;BME280;42891;50.006;21.964;2023-02-14T16:32:22;100556.59;;;4.94;82.52
57000;BME280;42891;50.006;21.964;2023-02-14T16:36:28;100567.00;;;4.96;82.52
57000;BME280;42891;50.006;21.964;2023-02-14T16:40:29;100566.41;;;4.89;82.98
57000;BME280;42891;50.006;21.964;2023-02-14T16:44:29;100577.69;;;4.91;83.25
57000;BME280;42891;50.006;21.964;2023-02-14T16:48:30;100569.91;;;4.88;82.92
57000;BME280;42891;50.006;21.964;2023-02-14T16:52:31;100588.91;;;4.93;82.73
57000;BME280;42891;50.006;21.964;2023-02-14T16:56:45;100593.38;;;4.91;82.81
57000;BME280;42891;50.006;21.964;2023-02-14T17:00:47;100591.78;;;4.87;82.79
57000;BME280;42891;50.006;21.964;2023-02-14T17:04:47;100596.78;;;4.93;83.39
57000;BME280;42891;50.006;21.964;2023-02-14T17:08:49;100589.75;;;4.94;82.94
57000;BME280;42891;50.006;21.964;2023-02-14T17:12:51;100583.31;;;4.81;82.83
57000;BME280;42891;50.006;21.964;2023-02-14T17:16:53;100592.91;;;4.80;83.19
57000;BME280;42891;50.006;21.964;2023-02-14T17:20:54;100587.31;;;4.67;83.46
57000;BME280;42891;50.006;21.964;2023-02-14T17:24:54;100590.06;;;4.64;84.01
57000;BME280;42891;50.006;21.964;2023-02-14T17:28:54;100594.84;;;4.53;84.18
57000;BME280;42891;50.006;21.964;2023-02-14T17:32:55;100598.59;;;4.46;84.76
57000;BME280;42891;50.006;21.964;2023-02-14T17:36:55;100615.66;;;4.56;84.94
57000;BME280;42891;50.006;21.964;2023-02-14T17:40:55;100616.28;;;4.63;84.39
57000;BME280;42891;50.006;21.964;2023-02-14T17:44:56;100611.84;;;4.65;84.27
57000;BME280;42891;50.006;21.964;2023-02-14T17:48:57;100609.00;;;4.71;83.84
57000;BME280;42891;50.006;21.964;2023-02-14T17:52:57;100603.53;;;4.53;83.58
57000;BME280;42891;50.006;21.964;2023-02-14T17:56:57;100617.22;;;4.84;83.81
57000;BME280;42891;50.006;21.964;2023-02-14T18:01:02;100626.84;;;4.83;83.63
57000;BME280;42891;50.006;21.964;2023-02-14T18:05:03;100608.88;;;4.74;83.41
57000;BME280;42891;50.006;21.964;2023-02-14T18:09:06;100630.69;;;4.97;83.21
57000;BME280;42891;50.006;21.964;2023-02-14T18:13:06;100615.94;;;4.94;83.05
57000;BME280;42891;50.006;21.964;2023-02-14T18:17:07;100629.72;;;4.99;83.33
57000;BME280;42891;50.006;21.964;2023-02-14T18:21:10;100638.25;;;5.04;82.67
57000;BME280;42891;50.006;21.964;2023-02-14T18:25:10;100619.97;;;5.03;82.75
57000;BME280;42891;50.006;21.964;2023-02-14T18:29:11;100629.28;;;5.10;82.76
57000;BME280;42891;50.006;21.964;2023-02-14T18:33:12;100637.09;;;5.11;82.41
57000;BME280;42891;50.006;21.964;2023-02-14T18:37:13;100633.91;;;5.03;83.12
57000;BME280;42891;50.006;21.964;2023-02-14T18:41:16;100598.72;;;4.88;82.68
57000;BME280;42891;50.006;21.964;2023-02-14T18:45:17;100610.53;;;4.99;82.15
57000;BME280;42891;50.006;21.964;2023-02-14T18:49:17;100639.41;;;5.19;82.26
57000;BME280;42891;50.006;21.964;2023-02-14T18:53:18;100620.06;;;5.00;82.41
57000;BME280;42891;50.006;21.964;2023-02-14T18:57:18;100626.75;;;5.08;82.39
57000;BME280;42891;50.006;21.964;2023-02-14T19:01:21;100619.72;;;5.09;82.24
57000;BME280;42891;50.006;21.964;2023-02-14T19:05:22;100640.31;;;5.18;81.90
57000;BME280;42891;50.006;21.964;2023-02-14T19:09:22;100636.53;;;5.03;82.26
57000;BME280;42891;50.006;21.964;2023-02-14T19:13:27;100648.72;;;5.04;82.34
57000;BME280;42891;50.006;21.964;2023-02-14T19:17:28;100637.88;;;5.13;82.32
57000;BME280;42891;50.006;21.964;2023-02-14T19:21:31;100641.28;;;5.16;81.98
57000;BME280;42891;50.006;21.964;2023-02-14T19:25:33;100639.69;;;5.11;82.00
57000;BME280;42891;50.006;21.964;2023-02-14T19:29:33;100649.69;;;5.02;82.39
57000;BME280;42891;50.006;21.964;2023-02-14T19:33:40;100646.41;;;5.19;81.95
57000;BME280;42891;50.006;21.964;2023-02-14T19:37:41;100603.78;;;4.93;81.60
57000;BME280;42891;50.006;21.964;2023-02-14T19:41:41;100637.09;;;5.11;81.58
57000;BME280;42891;50.006;21.964;2023-02-14T19:45:42;100635.25;;;5.13;81.44
57000;BME280;42891;50.006;21.964;2023-02-14T19:49:42;100653.75;;;5.31;81.17
57000;BME280;42891;50.006;21.964;2023-02-14T19:53:42;100645.56;;;5.18;81.25
57000;BME280;42891;50.006;21.964;2023-02-14T19:57:43;100620.63;;;4.86;81.51
57000;BME280;42891;50.006;21.964;2023-02-14T20:01:53;100656.94;;;5.17;81.43
57000;BME280;42891;50.006;21.964;2023-02-14T20:05:54;100630.47;;;5.03;81.08
57000;BME280;42891;50.006;21.964;2023-02-14T20:09:55;100664.97;;;5.12;81.37
57000;BME280;42891;50.006;21.964;2023-02-14T20:13:56;100673.31;;;5.22;81.23
57000;BME280;42891;50.006;21.964;2023-02-14T20:17:57;100673.47;;;5.19;81.31
57000;BME280;42891;50.006;21.964;2023-02-14T20:21:58;100645.34;;;5.01;80.99
57000;BME280;42891;50.006;21.964;2023-02-14T20:25:59;100663.53;;;5.05;81.36
57000;BME280;42891;50.006;21.964;2023-02-14T20:29:59;100671.88;;;5.15;81.52
57000;BME280;42891;50.006;21.964;2023-02-14T20:33:59;100667.88;;;5.05;81.40
57000;BME280;42891;50.006;21.964;2023-02-14T20:38:00;100675.19;;;5.19;80.81
57000;BME280;42891;50.006;21.964;2023-02-14T20:42:01;100673.47;;;5.19;81.16
57000;BME280;42891;50.006;21.964;2023-02-14T20:46:02;100655.88;;;4.99;81.25
57000;BME280;42891;50.006;21.964;2023-02-14T20:50:03;100668.38;;;5.15;80.76
57000;BME280;42891;50.006;21.964;2023-02-14T20:54:04;100651.63;;;4.97;80.91
57000;BME280;42891;50.006;21.964;2023-02-14T20:58:04;100665.53;;;4.99;81.19
57000;BME280;42891;50.006;21.964;2023-02-14T21:02:05;100669.72;;;5.03;80.95
57000;BME280;42891;50.006;21.964;2023-02-14T21:06:08;100679.25;;;5.04;80.51
57000;BME280;42891;50.006;21.964;2023-02-14T21:10:10;100682.13;;;4.98;80.46
57000;BME280;42891;50.006;21.964;2023-02-14T21:14:10;100670.00;;;4.95;80.22
57000;BME280;42891;50.006;21.964;2023-02-14T21:18:11;100684.41;;;5.07;80.31
57000;BME280;42891;50.006;21.964;2023-02-14T21:22:11;100675.81;;;5.03;80.09
57000;BME280;42891;50.006;21.964;2023-02-14T21:26:11;100673.88;;;5.08;79.77
57000;BME280;42891;50.006;21.964;2023-02-14T21:30:12;100667.94;;;5.03;79.48
57000;BME280;42891;50.006;21.964;2023-02-14T21:34:14;100694.50;;;5.16;79.67
57000;BME280;42891;50.006;21.964;2023-02-14T21:38:15;100678.28;;;5.06;79.34
57000;BME280;42891;50.006;21.964;2023-02-14T21:42:15;100679.03;;;5.10;79.13
57000;BME280;42891;50.006;21.964;2023-02-14T21:46:19;100684.78;;;5.20;79.59
57000;BME280;42891;50.006;21.964;2023-02-14T21:50:20;100659.88;;;5.09;78.98
57000;BME280;42891;50.006;21.964;2023-02-14T21:54:29;100654.84;;;5.03;79.52
57000;BME280;42891;50.006;21.964;2023-02-14T21:58:29;100674.50;;;5.15;79.67
57000;BME280;42891;50.006;21.964;2023-02-14T22:02:30;100674.03;;;5.04;80.29
57000;BME280;42891;50.006;21.964;2023-02-14T22:06:30;100646.91;;;4.83;79.90
57000;BME280;42891;50.006;21.964;2023-02-14T22:10:30;100675.94;;;5.00;80.35
57000;BME280;42891;50.006;21.964;2023-02-14T22:14:31;100685.88;;;5.14;80.23
57000;BME280;42891;50.006;21.964;2023-02-14T22:18:31;100681.88;;;5.04;80.81
57000;BME280;42891;50.006;21.964;2023-02-14T22:22:32;100667.72;;;4.86;80.80
57000;BME280;42891;50.006;21.964;2023-02-14T22:26:35;100687.00;;;4.85;81.12
57000;BME280;42891;50.006;21.964;2023-02-14T22:30:39;100680.38;;;4.74;81.59
57000;BME280;42891;50.006;21.964;2023-02-14T22:34:39;100683.69;;;4.80;81.95
57000;BME280;42891;50.006;21.964;2023-02-14T22:38:40;100684.06;;;4.92;81.54
57000;BME280;42891;50.006;21.964;2023-02-14T22:42:41;100667.00;;;4.82;81.29
57000;BME280;42891;50.006;21.964;2023-02-14T22:46:41;100686.69;;;4.92;81.14
57000;BME280;42891;50.006;21.964;2023-02-14T22:50:41;100686.47;;;4.99;80.84
57000;BME280;42891;50.006;21.964;2023-02-14T22:54:42;100685.09;;;4.88;80.33
57000;BME280;42891;50.006;21.964;2023-02-14T22:58:43;100689.28;;;4.92;80.02
57000;BME280;42891;50.006;21.964;2023-02-14T23:02:44;100670.31;;;4.64;80.62
57000;BME280;42891;50.006;21.964;2023-02-14T23:06:44;100677.69;;;4.76;80.84
57000;BME280;42891;50.006;21.964;2023-02-14T23:10:45;100656.25;;;4.66;80.68
57000;BME280;42891;50.006;21.964;2023-02-14T23:14:45;100661.97;;;4.77;80.35
57000;BME280;42891;50.006;21.964;2023-02-14T23:19:04;100635.75;;;4.55;79.70